createdAt,value
2019-02-24T00:00:16.964Z,99.90
2019-02-24T00:02:52.517Z,99.90
2019-02-24T00:05:21.203Z,99.90
2019-02-24T00:07:49.984Z,99.90
2019-02-24T00:10:25.019Z,99.90
2019-02-24T00:12:53.714Z,99.90
2019-02-24T00:15:22.422Z,99.90
2019-02-24T00:17:57.841Z,99.90
2019-02-24T00:20:26.524Z,99.90
2019-02-24T00:22:55.388Z,99.90
2019-02-24T00:25:31.283Z,99.90
2019-02-24T00:28:06.971Z,99.90
2019-02-24T00:30:30.383Z,99.90
2019-02-24T00:33:05.943Z,99.90
2019-02-24T00:35:34.451Z,99.90
2019-02-24T00:38:22.188Z,99.90
2019-02-24T00:40:50.760Z,99.90
2019-02-24T00:43:19.543Z,99.90
2019-02-24T00:45:55.175Z,99.90
2019-02-24T00:48:23.856Z,99.90
2019-02-24T00:50:52.952Z,99.90
2019-02-24T00:53:29.118Z,99.90
2019-02-24T00:55:57.904Z,99.90
2019-02-24T00:58:26.897Z,99.90
2019-02-24T01:01:02.445Z,99.90
2019-02-24T01:03:31.046Z,99.90
2019-02-24T01:05:59.613Z,99.90
2019-02-24T01:08:35.684Z,99.90
2019-02-24T01:11:04.361Z,99.90
2019-02-24T01:13:33.254Z,99.90
2019-02-24T01:16:09.312Z,99.90
2019-02-24T01:18:38.001Z,99.90
2019-02-24T01:21:06.888Z,99.90
2019-02-24T01:23:42.131Z,99.90
2019-02-24T01:26:11.022Z,99.90
2019-02-24T01:28:39.911Z,99.90
2019-02-24T01:31:15.360Z,99.90
2019-02-24T01:33:44.061Z,99.90
2019-02-24T01:36:13.225Z,99.90
2019-02-24T01:38:48.175Z,99.90
2019-02-24T01:41:24.481Z,99.90
2019-02-24T01:44:00.712Z,99.90
2019-02-24T01:46:29.301Z,99.90
2019-02-24T01:48:57.891Z,99.90
2019-02-24T01:51:33.259Z,99.90
2019-02-24T01:54:02.009Z,99.90
2019-02-24T01:56:30.896Z,99.90
2019-02-24T01:59:06.963Z,99.90
2019-02-24T02:01:35.950Z,99.90
2019-02-24T02:04:04.651Z,99.90
2019-02-24T02:06:40.185Z,99.90
2019-02-24T02:09:08.870Z,99.90
2019-02-24T02:11:37.566Z,99.90
2019-02-24T02:14:12.389Z,99.90
2019-02-24T02:16:41.283Z,99.90
2019-02-24T02:19:09.972Z,99.90
2019-02-24T02:21:46.335Z,99.90
2019-02-24T02:24:14.880Z,99.90
2019-02-24T02:26:43.602Z,99.90
2019-02-24T02:29:19.560Z,99.90
2019-02-24T02:31:48.350Z,99.90
2019-02-24T02:34:17.045Z,99.90
2019-02-24T02:36:53.099Z,99.90
2019-02-24T02:39:21.783Z,99.90
2019-02-24T02:41:56.615Z,99.90
2019-02-24T02:44:39.014Z,99.90
2019-02-24T02:47:07.914Z,99.90
2019-02-24T02:49:37.011Z,99.90
2019-02-24T02:52:12.254Z,99.90
2019-02-24T02:55:07.579Z,99.90
2019-02-24T02:57:49.566Z,99.90
2019-02-24T03:00:35.661Z,99.90
2019-02-24T03:03:11.715Z,99.90
2019-02-24T03:05:42.040Z,99.90
2019-02-24T03:08:12.362Z,99.90
2019-02-24T03:10:47.587Z,99.90
2019-02-24T03:13:16.296Z,99.90
2019-02-24T03:15:45.257Z,99.90
2019-02-24T03:18:20.328Z,99.90
2019-02-24T03:20:48.870Z,99.90
2019-02-24T03:23:17.581Z,99.90
2019-02-24T03:25:52.537Z,99.90
2019-02-24T03:28:21.312Z,99.90
2019-02-24T03:30:50.413Z,99.90
2019-02-24T03:33:25.471Z,99.90
2019-02-24T03:35:54.135Z,99.90
2019-02-24T03:38:23.231Z,99.90
2019-02-24T03:40:58.508Z,99.90
2019-02-24T03:43:27.359Z,99.90
2019-02-24T03:46:10.089Z,99.90
2019-02-24T03:48:38.663Z,99.90
2019-02-24T03:51:07.636Z,99.90
2019-02-24T03:53:42.745Z,99.90
2019-02-24T03:56:18.439Z,99.90
2019-02-24T03:59:00.335Z,99.90
2019-02-24T04:01:28.967Z,99.90
2019-02-24T04:03:57.606Z,99.90
2019-02-24T04:06:33.263Z,99.90
2019-02-24T04:09:02.045Z,99.90
2019-02-24T04:11:30.577Z,99.90
2019-02-24T04:14:06.281Z,99.90
2019-02-24T04:16:34.889Z,99.90
2019-02-24T04:19:03.457Z,99.90
2019-02-24T04:21:39.102Z,99.90
2019-02-24T04:24:07.785Z,99.90
2019-02-24T04:26:36.886Z,99.90
2019-02-24T04:29:12.941Z,99.90
2019-02-24T04:31:41.628Z,99.90
2019-02-24T04:34:10.527Z,99.90
2019-02-24T04:36:45.764Z,99.90
2019-02-24T04:39:14.487Z,99.90
2019-02-24T04:41:43.347Z,99.90
2019-02-24T04:44:18.991Z,99.90
2019-02-24T04:46:54.229Z,99.90
2019-02-24T04:49:23.018Z,99.90
2019-02-24T04:51:59.181Z,99.90
2019-02-24T04:54:28.071Z,99.90
2019-02-24T04:57:10.445Z,99.90
2019-02-24T04:59:46.348Z,99.90
2019-02-24T05:02:22.087Z,99.90
2019-02-24T05:04:50.595Z,99.90
2019-02-24T05:07:19.674Z,99.90
2019-02-24T05:09:55.622Z,99.90
2019-02-24T05:12:24.414Z,99.90
2019-02-24T05:14:53.015Z,99.90
2019-02-24T05:17:29.071Z,99.90
2019-02-24T05:19:57.653Z,99.90
2019-02-24T05:22:26.425Z,99.90
2019-02-24T05:25:03.026Z,99.90
2019-02-24T05:27:31.786Z,99.90
2019-02-24T05:30:00.883Z,99.90
2019-02-24T05:32:36.537Z,99.90
2019-02-24T05:35:06.048Z,99.90
2019-02-24T05:37:34.928Z,99.90
2019-02-24T05:40:11.113Z,99.90
2019-02-24T05:42:39.902Z,99.90
2019-02-24T05:45:08.780Z,99.90
2019-02-24T05:47:50.975Z,99.90
2019-02-24T05:50:19.866Z,99.90
2019-02-24T05:52:48.774Z,99.90
2019-02-24T05:55:23.589Z,99.90
2019-02-24T05:57:58.532Z,99.90
2019-02-24T06:00:40.011Z,99.90
2019-02-24T06:03:08.702Z,99.90
2019-02-24T06:05:37.291Z,99.90
2019-02-24T06:08:13.050Z,99.90
2019-02-24T06:10:41.665Z,99.90
2019-02-24T06:13:10.406Z,99.90
2019-02-24T06:15:45.859Z,99.90
2019-02-24T06:18:14.640Z,99.90
2019-02-24T06:20:43.432Z,99.90
2019-02-24T06:23:19.388Z,99.90
2019-02-24T06:25:48.177Z,99.90
2019-02-24T06:28:17.066Z,99.90
2019-02-24T06:30:53.333Z,99.90
2019-02-24T06:33:22.023Z,99.90
2019-02-24T06:35:50.717Z,99.90
2019-02-24T06:38:25.945Z,99.90
2019-02-24T06:40:54.638Z,99.90
2019-02-24T06:43:23.328Z,99.90
2019-02-24T06:46:00.822Z,99.90
2019-02-24T06:48:36.458Z,99.90
2019-02-24T06:51:14.789Z,99.90
2019-02-24T06:53:43.466Z,99.90
2019-02-24T06:56:12.247Z,99.90
2019-02-24T06:58:48.305Z,99.90
2019-02-24T07:01:23.449Z,99.90
2019-02-24T07:03:52.130Z,99.90
2019-02-24T07:06:27.506Z,99.90
2019-02-24T07:08:56.178Z,99.90
2019-02-24T07:11:24.955Z,99.90
2019-02-24T07:14:00.605Z,99.90
2019-02-24T07:16:29.240Z,99.90
2019-02-24T07:18:57.742Z,99.90
2019-02-24T07:21:33.418Z,99.90
2019-02-24T07:24:02.106Z,99.90
2019-02-24T07:26:30.663Z,99.90
2019-02-24T07:29:06.354Z,99.90
2019-02-24T07:31:35.128Z,99.90
2019-02-24T07:34:03.705Z,99.90
2019-02-24T07:36:39.264Z,99.90
2019-02-24T07:39:08.155Z,99.90
2019-02-24T07:41:36.837Z,99.90
2019-02-24T07:44:13.265Z,99.90
2019-02-24T07:46:42.003Z,99.90
2019-02-24T07:49:10.682Z,99.90
2019-02-24T07:51:54.768Z,99.90
2019-02-24T07:54:23.425Z,99.90
2019-02-24T07:56:52.103Z,99.90
2019-02-24T07:59:27.973Z,99.90
2019-02-24T08:02:03.534Z,99.90
2019-02-24T08:04:32.084Z,99.90
2019-02-24T08:07:08.154Z,99.90
2019-02-24T08:09:37.384Z,99.90
2019-02-24T08:12:06.338Z,99.90
2019-02-24T08:14:41.582Z,99.90
2019-02-24T08:17:10.469Z,99.90
2019-02-24T08:19:39.068Z,99.90
2019-02-24T08:22:14.397Z,99.90
2019-02-24T08:24:42.958Z,99.90
2019-02-24T08:27:11.775Z,99.90
2019-02-24T08:29:46.494Z,99.90
2019-02-24T08:32:15.446Z,97.30
2019-02-24T08:34:44.173Z,85.00
2019-02-24T08:37:19.135Z,69.70
2019-02-24T08:39:47.702Z,60.40
2019-02-24T08:42:16.386Z,54.90
2019-02-24T08:44:52.977Z,51.90
2019-02-24T08:47:21.646Z,49.00
2019-02-24T08:49:50.432Z,47.60
2019-02-24T08:52:26.304Z,45.30
2019-02-24T08:55:02.253Z,44.30
2019-02-24T08:57:31.032Z,43.00
2019-02-24T09:00:05.934Z,41.20
2019-02-24T09:02:41.112Z,41.50
2019-02-24T09:05:09.722Z,42.40
2019-02-24T09:07:45.547Z,43.30
2019-02-24T09:10:14.342Z,42.70
2019-02-24T09:12:43.221Z,42.50
2019-02-24T09:15:20.304Z,41.30
2019-02-24T09:17:48.829Z,40.30
2019-02-24T09:20:17.680Z,40.50
2019-02-24T09:22:53.704Z,41.60
2019-02-24T09:25:22.334Z,42.00
2019-02-24T09:27:50.841Z,41.50
2019-02-24T09:30:25.729Z,42.10
2019-02-24T09:32:54.424Z,41.80
2019-02-24T09:35:23.521Z,41.20
2019-02-24T09:37:58.198Z,39.50
2019-02-24T09:40:26.742Z,39.30
2019-02-24T09:42:55.485Z,39.90
2019-02-24T09:45:30.761Z,39.50
2019-02-24T09:47:59.467Z,40.80
2019-02-24T09:50:28.134Z,44.40
2019-02-24T09:53:03.577Z,40.60
2019-02-24T11:03:41.554Z,58.20
2019-02-24T11:06:10.264Z,44.10
2019-02-24T11:08:41.101Z,44.70
2019-02-24T11:11:16.432Z,46.20
2019-02-24T11:13:56.446Z,48.10
2019-02-24T11:23:02.336Z,51.50
2019-02-24T11:25:31.113Z,52.90
2019-02-24T11:27:59.678Z,54.80
2019-02-24T11:30:35.107Z,55.80
2019-02-24T11:33:04.324Z,56.40
2019-02-24T11:35:33.285Z,55.80
2019-02-24T11:38:08.942Z,56.60
2019-02-24T11:40:37.490Z,54.60
2019-02-24T11:43:05.998Z,55.70
2019-02-24T11:45:41.343Z,57.80
2019-02-24T11:48:09.937Z,57.90
2019-02-24T11:50:38.458Z,56.20
2019-02-24T11:53:14.467Z,56.10
2019-02-24T11:55:43.111Z,56.50
2019-02-24T11:58:12.048Z,56.40
2019-02-24T12:00:47.699Z,56.40
2019-02-24T12:03:36.045Z,56.20
2019-02-24T12:06:11.612Z,55.80
2019-02-24T12:08:40.192Z,56.10
2019-02-24T12:11:08.778Z,54.10
2019-02-24T12:13:44.640Z,54.10
2019-02-24T12:16:13.404Z,53.60
2019-02-24T12:18:42.125Z,54.60
2019-02-24T12:21:17.282Z,55.10
2019-02-24T16:40:01.902Z,92.50
2019-02-24T16:42:30.488Z,74.40
2019-02-24T16:44:59.468Z,72.80
2019-02-24T16:47:34.938Z,72.20
2019-02-24T16:50:04.373Z,72.20
2019-02-24T16:52:33.047Z,72.60
2019-02-24T16:55:08.741Z,73.10
2019-02-24T16:57:37.655Z,73.30
2019-02-24T17:00:32.037Z,73.10
2019-02-24T17:03:00.536Z,73.50
2019-02-24T17:05:29.205Z,74.70
2019-02-24T17:08:04.410Z,75.00
2019-02-24T17:10:33.030Z,75.10
2019-02-24T17:13:01.911Z,75.40
2019-02-24T17:15:38.028Z,75.60
2019-02-24T17:18:06.551Z,75.80
2019-02-24T17:20:35.057Z,76.50
2019-02-24T17:23:10.277Z,76.90
2019-02-24T17:25:38.957Z,77.30
2019-02-24T17:28:07.502Z,78.00
2019-02-24T17:30:42.892Z,78.80
2019-02-24T17:33:11.542Z,80.00
2019-02-24T17:35:40.312Z,79.60
2019-02-24T17:38:16.223Z,80.10
2019-02-24T17:40:51.365Z,82.50
2019-02-24T17:43:27.206Z,82.00
2019-02-24T17:45:55.896Z,82.80
2019-02-24T17:48:24.583Z,83.40
2019-02-24T17:50:59.747Z,83.60
2019-02-24T17:53:28.409Z,83.60
2019-02-24T17:55:56.957Z,83.80
2019-02-24T17:58:32.609Z,84.60
2019-02-24T18:01:02.966Z,87.10
2019-02-24T18:03:39.142Z,88.50
2019-02-24T18:06:09.055Z,88.50
2019-02-24T18:08:37.733Z,90.40
2019-02-24T18:11:06.341Z,90.20
2019-02-24T18:13:41.965Z,90.60
2019-02-24T18:16:10.503Z,91.40
2019-02-24T18:18:39.335Z,93.00
2019-02-24T18:21:14.782Z,93.40
2019-02-24T18:23:43.672Z,94.20
2019-02-24T18:26:12.564Z,94.70
2019-02-24T18:28:47.681Z,95.30
2019-02-24T18:31:16.387Z,96.60
2019-02-24T18:33:48.267Z,97.30
2019-02-24T18:36:22.625Z,97.80
2019-02-24T18:38:57.910Z,98.90
2019-02-24T18:41:40.495Z,99.90
2019-02-24T18:44:09.331Z,99.90
2019-02-24T18:46:37.902Z,99.90
2019-02-24T18:49:13.871Z,99.90
2019-02-24T18:51:42.543Z,99.90
2019-02-24T18:54:11.137Z,99.90
2019-02-24T18:56:46.885Z,99.90
2019-02-24T18:59:15.680Z,99.90
2019-02-24T19:01:44.567Z,99.90
2019-02-24T19:04:20.209Z,99.90
2019-02-24T19:06:48.741Z,99.90
2019-02-24T19:09:17.235Z,99.90
2019-02-24T19:11:54.651Z,99.90
2019-02-24T19:14:23.153Z,99.90
2019-02-24T19:16:52.039Z,99.90
2019-02-24T19:19:36.495Z,99.90
2019-02-24T19:24:06.688Z,99.90
2019-02-24T19:26:42.076Z,99.90
2019-02-24T19:29:10.770Z,99.90
2019-02-24T19:31:54.932Z,99.90
2019-02-24T19:34:23.530Z,99.90
2019-02-24T19:36:52.391Z,99.90
2019-02-24T19:39:27.215Z,99.90
2019-02-24T19:41:55.820Z,99.90
2019-02-24T19:44:24.744Z,99.90
2019-02-24T19:47:00.035Z,99.90
2019-02-24T19:49:28.721Z,99.90
2019-02-24T19:51:57.409Z,99.90
2019-02-24T19:54:33.054Z,99.90
2019-02-24T19:57:01.746Z,99.90
2019-02-24T19:59:30.558Z,99.90
2019-02-24T20:02:06.076Z,99.90
2019-02-24T20:04:34.579Z,99.90
2019-02-24T20:07:03.374Z,99.90
2019-02-24T20:09:38.284Z,99.90
2019-02-24T20:12:08.215Z,99.90
2019-02-24T20:14:37.508Z,99.90
2019-02-24T20:17:12.335Z,99.90
2019-02-24T20:19:41.227Z,99.90
2019-02-24T20:22:10.222Z,99.90
2019-02-24T20:24:45.970Z,99.90
2019-02-24T20:27:21.825Z,99.90
2019-02-24T20:29:58.092Z,99.90
2019-02-24T20:32:26.783Z,99.90
2019-02-24T20:34:55.464Z,99.90
2019-02-24T20:37:30.909Z,99.90
2019-02-24T20:39:59.612Z,99.90
2019-02-24T20:42:28.485Z,99.90
2019-02-24T20:45:04.139Z,99.90
2019-02-24T20:47:32.704Z,99.90
2019-02-24T20:50:01.270Z,99.90
2019-02-24T20:52:37.228Z,99.90
2019-02-24T20:55:07.692Z,99.90
2019-02-24T20:57:36.379Z,99.90
2019-02-24T21:00:17.717Z,99.90
2019-02-24T21:02:46.291Z,99.90
2019-02-24T21:05:14.946Z,99.90
2019-02-24T21:07:52.484Z,99.90
2019-02-24T21:10:21.115Z,99.90
2019-02-24T21:12:49.793Z,99.90
2019-02-24T21:15:26.470Z,99.90
2019-02-24T21:17:55.045Z,99.90
2019-02-24T21:20:38.696Z,99.90
2019-02-24T21:23:07.279Z,99.90
2019-02-24T21:25:35.940Z,99.90
2019-02-24T21:28:12.028Z,99.90
2019-02-24T21:30:47.096Z,99.90
2019-02-24T21:33:22.205Z,99.90
2019-02-24T21:35:50.789Z,99.90
2019-02-24T21:38:19.465Z,99.90
2019-02-24T21:40:54.468Z,99.90
2019-02-24T21:43:23.190Z,99.90
2019-02-24T21:45:51.883Z,99.90
2019-02-24T21:48:27.626Z,99.90
2019-02-24T21:50:56.416Z,99.90
2019-02-24T21:53:25.102Z,99.90
2019-02-24T21:56:00.547Z,99.90
2019-02-24T21:58:29.067Z,99.90
2019-02-24T22:00:57.563Z,99.90
2019-02-24T22:03:33.776Z,99.90
2019-02-24T22:06:02.308Z,99.90
2019-02-24T22:08:30.945Z,99.90
2019-02-24T22:11:07.008Z,99.90
2019-02-24T22:13:35.692Z,99.90
2019-02-24T22:16:04.586Z,99.90
2019-02-24T22:18:39.826Z,99.90
2019-02-24T22:21:08.508Z,99.90
2019-02-24T22:23:37.195Z,99.90
2019-02-24T22:26:13.049Z,99.90
2019-02-24T22:28:41.569Z,99.90
2019-02-24T22:31:10.227Z,99.90
2019-02-24T22:33:52.667Z,99.90
2019-02-24T22:36:21.516Z,99.90
2019-02-24T22:38:50.254Z,99.90
2019-02-24T22:41:26.263Z,99.90
2019-02-24T22:43:54.853Z,99.90
2019-02-24T22:46:23.533Z,99.90
2019-02-24T22:49:00.419Z,99.90
2019-02-24T22:51:29.200Z,99.90
2019-02-24T22:53:57.693Z,99.90
2019-02-24T22:56:33.846Z,99.90
2019-02-24T22:59:02.379Z,99.90
2019-02-24T23:01:31.830Z,99.90
2019-02-24T23:04:15.324Z,99.90
2019-02-24T23:06:44.058Z,99.90
2019-02-24T23:09:13.091Z,99.90
2019-02-24T23:11:48.392Z,99.90
2019-02-24T23:14:16.884Z,99.90
2019-02-24T23:16:45.770Z,99.90
2019-02-24T23:19:20.799Z,99.90
2019-02-24T23:21:49.508Z,99.90
2019-02-24T23:24:18.167Z,99.90
2019-02-24T23:26:53.824Z,99.90
2019-02-24T23:29:22.523Z,99.90
2019-02-24T23:31:51.407Z,99.90
2019-02-24T23:34:26.997Z,99.90
2019-02-24T23:37:01.835Z,99.90
2019-02-24T23:39:37.329Z,99.90
2019-02-24T23:42:06.065Z,99.90
2019-02-24T23:44:35.008Z,99.90
2019-02-24T23:47:10.986Z,99.90
2019-02-24T23:49:39.654Z,99.90
2019-02-24T23:52:08.256Z,99.90
2019-02-24T23:54:43.990Z,99.90
2019-02-24T23:57:12.885Z,99.90
2019-02-24T23:59:41.567Z,99.90
